Time;durP1;ratioP1;P1;durP2;ratioP2;P2;SDS_P1;SDS_P2;PMS_P1;PMS_P2;Temp;Humidity;BMP_temperature;BMP_pressure;BME280_temperature;BME280_humidity;BME280_pressure;Samples;Min_cycle;Max_cycle;Signal;HPM_P1;HPM_P2
2023/01/04 00:00:28;;;;;;;;;;;;;;;26.20;28.96;101653.63;5065638;28;1004;-12
2023/01/04 00:02:53;;;;;;;;;;;;;;;26.95;27.53;101652.38;5076406;28;2475;-12
2023/01/04 00:05:18;;;;;;;;;;;;;;;26.85;27.25;101654.31;5063080;28;1084;-12
2023/01/04 00:07:44;;;;;;;;;;;;;;;26.56;27.89;101669.81;5076618;28;1081;-12
2023/01/04 00:10:09;;;;;;;;;;;;;;;26.17;28.65;101669.13;5076329;28;1051;-13
2023/01/04 00:12:35;;;;;;;;;;;;;;;26.96;27.70;101659.47;5063489;28;879;-12
2023/01/04 00:15:00;;;;;;;;;;;;;;;26.63;27.83;101670.91;5075634;28;1028;-12
2023/01/04 00:17:26;;;;;;;;;;;;;;;26.57;28.05;101674.22;5076105;28;1028;-12
2023/01/04 00:19:51;;;;;;;;;;;;;;;24.98;30.66;101676.09;5076202;28;1158;-12
2023/01/04 00:22:16;;;;;;;;;;;;;;;24.73;31.27;101673.88;5076010;28;1964;-12
2023/01/04 00:24:41;;;;;;;;;;;;;;;25.29;30.52;101667.81;5075830;28;1218;-12
2023/01/04 00:27:07;;;;;;;;;;;;;;;26.09;28.79;101673.59;5076539;28;1109;-12
2023/01/04 00:29:32;;;;;;;;;;;;;;;26.25;28.18;101681.84;5076242;28;1004;-13
2023/01/04 00:31:57;;;;;;;;;;;;;;;25.09;30.47;101678.63;5076103;28;1943;-12
2023/01/04 00:34:22;;;;;;;;;;;;;;;24.97;30.82;101683.34;5076097;28;987;-12
2023/01/04 00:36:48;;;;;;;;;;;;;;;25.21;30.35;101681.16;5075702;28;894;-12
2023/01/04 00:39:14;;;;;;;;;;;;;;;25.58;29.71;101682.97;5076585;28;1108;-13
2023/01/04 00:41:40;;;;;;;;;;;;;;;26.11;28.73;101688.63;5075611;28;1957;-12
2023/01/04 00:44:05;;;;;;;;;;;;;;;26.36;28.42;101688.06;5076047;28;1113;-12
2023/01/04 00:46:31;;;;;;;;;;;;;;;25.52;29.67;101686.25;5075942;28;1063;-13
2023/01/04 00:48:56;;;;;;;;;;;;;;;25.39;29.99;101686.59;5075320;28;1138;-12
2023/01/04 00:51:21;;;;;;;;;;;;;;;25.50;29.88;101683.72;5076381;28;1181;-12
2023/01/04 00:53:47;;;;;;;;;;;;;;;26.09;28.79;101689.78;5075329;28;1095;-12
2023/01/04 00:56:12;;;;;;;;;;;;;;;26.33;28.30;101697.28;5075754;28;1138;-12
2023/01/04 00:58:37;;;;;;;;;;;;;;;26.01;28.76;101695.91;5075500;28;1134;-12
2023/01/04 01:01:05;;;;;;;;;;;;;;;25.03;30.43;101692.66;5075578;28;1949;-12
2023/01/04 01:03:31;;;;;;;;;;;;;;;25.01;30.71;101684.75;5058154;28;2210;-12
2023/01/04 01:06:00;;;;;;;;;;;;;;;25.16;30.42;101693.19;5075778;28;1082;-12
2023/01/04 01:08:25;;;;;;;;;;;;;;;25.35;30.15;101685.19;5075810;28;1221;-12
2023/01/04 01:10:51;;;;;;;;;;;;;;;25.87;28.96;101695.47;5076236;28;1018;-13
2023/01/04 01:13:16;;;;;;;;;;;;;;;26.24;28.46;101688.22;5074816;28;1159;-12
2023/01/04 01:15:42;;;;;;;;;;;;;;;26.25;28.71;101692.66;5062710;28;1078;-13
2023/01/04 01:18:07;;;;;;;;;;;;;;;26.33;28.63;101686.50;5062244;28;1222;-12
2023/01/04 01:20:32;;;;;;;;;;;;;;;26.09;29.22;101693.31;5076021;28;1105;-12
2023/01/04 01:22:58;;;;;;;;;;;;;;;26.44;28.27;101692.66;5075202;28;1901;-12
2023/01/04 01:25:23;;;;;;;;;;;;;;;26.51;28.15;101699.97;5075502;28;925;-12
2023/01/04 01:27:48;;;;;;;;;;;;;;;25.71;29.41;101696.09;5075282;28;1135;-12
2023/01/04 01:30:13;;;;;;;;;;;;;;;24.96;30.82;101696.97;5075600;28;1023;-12
2023/01/04 01:32:39;;;;;;;;;;;;;;;26.68;28.24;101692.00;5075540;28;2360;-12
2023/01/04 01:35:04;;;;;;;;;;;;;;;26.80;27.59;101697.16;5075265;28;1176;-12
2023/01/04 01:37:29;;;;;;;;;;;;;;;26.62;27.62;101693.50;5075264;28;904;-12
2023/01/04 01:39:55;;;;;;;;;;;;;;;25.55;29.76;101694.03;5075225;28;1048;-12
2023/01/04 01:42:21;;;;;;;;;;;;;;;26.34;28.80;101693.56;5075402;28;1917;-12
2023/01/04 01:44:56;;;;;;;;;;;;;;;26.80;27.67;101695.31;5057742;28;1008;-12
2023/01/04 01:47:22;;;;;;;;;;;;;;;26.68;27.84;101688.44;5075569;28;1091;-12
2023/01/04 01:49:48;;;;;;;;;;;;;;;25.70;29.52;101696.25;5062900;28;1043;-12
2023/01/04 01:52:15;;;;;;;;;;;;;;;25.09;30.48;101683.16;5057256;28;1157;-12
2023/01/04 01:54:41;;;;;;;;;;;;;;;25.11;30.64;101686.56;5075135;28;1499;-12
2023/01/04 01:57:07;;;;;;;;;;;;;;;25.30;30.28;101691.88;5037581;28;1516;-13
2023/01/04 01:59:32;;;;;;;;;;;;;;;25.24;30.45;101689.75;5037283;28;1132;-13
2023/01/04 02:01:58;;;;;;;;;;;;;;;25.83;29.29;101685.97;5075046;28;2226;-12
2023/01/04 02:04:23;;;;;;;;;;;;;;;26.32;28.38;101683.91;5074902;28;1066;-12
2023/01/04 02:06:50;;;;;;;;;;;;;;;26.44;28.27;101693.53;5061067;28;1122;-12
2023/01/04 02:09:15;;;;;;;;;;;;;;;25.79;29.52;101695.38;5078668;28;1046;-12
2023/01/04 02:11:41;;;;;;;;;;;;;;;25.78;29.62;101690.97;5078467;28;1550;-12
2023/01/04 02:17:03;;;;;;;;;;;;;;;26.48;27.91;101694.03;5063391;28;930;-12
2023/01/04 02:19:42;;;;;;;;;;;;;;;25.73;29.24;101695.94;5078486;28;1107;-12
2023/01/04 02:22:10;;;;;;;;;;;;;;;26.56;27.95;101695.97;5060927;28;1901;-12
2023/01/04 02:24:54;;;;;;;;;;;;;;;27.02;27.21;101699.38;5078024;28;1094;-12
2023/01/04 02:27:31;;;;;;;;;;;;;;;26.74;27.75;101698.63;5078400;28;1099;-12
2023/01/04 02:30:06;;;;;;;;;;;;;;;26.10;28.63;101696.88;5078283;28;1040;-12
2023/01/04 02:32:31;;;;;;;;;;;;;;;25.11;30.44;101690.09;5078291;28;2249;-12
2023/01/04 02:35:14;;;;;;;;;;;;;;;25.07;30.66;101686.00;5078387;28;1248;-12
2023/01/04 02:37:42;;;;;;;;;;;;;;;25.39;29.93;101690.13;5060246;28;1274;-12
2023/01/04 02:40:07;;;;;;;;;;;;;;;25.47;29.99;101692.09;5060404;28;1146;-12
2023/01/04 02:45:22;;;;;;;;;;;;;;;26.51;28.00;101696.41;5077814;28;1060;-12
2023/01/04 02:50:36;;;;;;;;;;;;;;;26.66;27.72;101683.22;5064347;28;996;-12
2023/01/04 02:53:02;;;;;;;;;;;;;;;26.72;27.34;101688.00;5077810;28;1126;-12
2023/01/04 02:55:31;;;;;;;;;;;;;;;26.25;28.44;101683.69;5077925;28;1062;-12
2023/01/04 02:58:00;;;;;;;;;;;;;;;25.08;30.27;101687.69;5059364;28;1035;-12
2023/01/04 03:06:13;;;;;;;;;;;;;;;25.10;30.25;101683.03;5041129;28;1103;-12
2023/01/04 03:06:15;;;;;;;;;;;;;;;26.39;28.07;101696.66;5070845;28;984;-12
2023/01/04 03:08:40;;;;;;;;;;;;;;;26.29;28.42;101701.28;5077582;28;1182;-12
2023/01/04 03:12:30;;;;;;;;;;;;;;;25.44;29.57;101698.63;5077450;28;1004;-12
2023/01/04 03:13:59;;;;;;;;;;;;;;;26.14;28.37;101696.41;5051734;28;903;-12
2023/01/04 03:16:25;;;;;;;;;;;;;;;26.49;27.91;101699.28;5062674;28;1171;-12
2023/01/04 03:18:51;;;;;;;;;;;;;;;26.12;28.60;101692.16;5077650;28;1198;-12
2023/01/04 03:21:17;;;;;;;;;;;;;;;25.13;30.17;101689.94;5059497;28;1902;-12
2023/01/04 03:37:39;;;;;;;;;;;;;;;25.80;29.18;101719.47;5064536;28;1103;-12
2023/01/04 03:49:28;;;;;;;;;;;;;;;27.14;27.00;101716.13;5023246;28;1365;-12
2023/01/04 03:51:54;;;;;;;;;;;;;;;26.89;27.04;101721.34;5055375;28;1056;-12
2023/01/04 03:54:21;;;;;;;;;;;;;;;26.81;27.44;101718.59;5059221;28;1074;-12
2023/01/04 03:56:46;;;;;;;;;;;;;;;26.83;27.41;101726.53;5058904;28;1063;-12
2023/01/04 03:59:11;;;;;;;;;;;;;;;27.38;26.64;101730.78;5076210;28;1115;-12
2023/01/04 04:01:37;;;;;;;;;;;;;;;26.94;27.04;101728.13;5076462;28;2376;-13
2023/01/04 04:09:30;;;;;;;;;;;;;;;26.74;27.55;101723.75;5076674;28;1120;-12
2023/01/04 04:11:55;;;;;;;;;;;;;;;26.65;27.43;101743.59;5076414;28;1070;-12
2023/01/04 04:14:21;;;;;;;;;;;;;;;26.60;27.76;101744.06;5076126;28;910;-12
2023/01/04 04:16:46;;;;;;;;;;;;;;;26.61;27.88;101743.06;5076132;28;1000;-12
2023/01/04 04:19:11;;;;;;;;;;;;;;;27.13;27.17;101744.16;5075944;28;920;-13
2023/01/04 04:21:36;;;;;;;;;;;;;;;26.79;27.62;101747.59;5076199;28;1906;-12
2023/01/04 04:24:02;;;;;;;;;;;;;;;26.12;28.31;101744.25;5075993;28;1015;-12
2023/01/04 04:26:27;;;;;;;;;;;;;;;24.99;30.23;101751.31;5075789;28;1021;-12
2023/01/04 04:28:52;;;;;;;;;;;;;;;25.60;29.12;101748.34;5075752;28;1111;-12
2023/01/04 04:31:18;;;;;;;;;;;;;;;25.46;29.43;101755.03;5076173;28;1086;-12
2023/01/04 04:33:43;;;;;;;;;;;;;;;25.65;29.23;101761.38;5076423;28;2677;-12
2023/01/04 04:36:08;;;;;;;;;;;;;;;26.08;28.00;101763.56;5076131;28;1121;-12
2023/01/04 04:38:34;;;;;;;;;;;;;;;26.07;28.34;101765.44;5075875;28;897;-12
2023/01/04 04:43:43;;;;;;;;;;;;;;;26.03;28.42;101766.72;5076137;28;1003;-12
2023/01/04 04:46:08;;;;;;;;;;;;;;;26.16;28.06;101771.75;5075829;28;1086;-12
2023/01/04 04:48:33;;;;;;;;;;;;;;;25.60;25.72;101774.41;5075920;28;1135;-12
2023/01/04 04:50:59;;;;;;;;;;;;;;;24.14;27.43;101776.84;5065936;28;958;-12
2023/01/04 04:53:24;;;;;;;;;;;;;;;24.56;27.79;101780.34;5058309;28;1139;-12
2023/01/04 04:55:50;;;;;;;;;;;;;;;26.06;26.01;101782.59;5075651;28;1066;-12
2023/01/04 04:58:15;;;;;;;;;;;;;;;25.93;26.71;101788.34;5072650;28;986;-12
2023/01/04 05:00:41;;;;;;;;;;;;;;;25.86;26.30;101789.97;5055974;28;1040;-12
2023/01/04 05:03:06;;;;;;;;;;;;;;;25.80;26.11;101786.00;5061663;28;1902;-12
2023/01/04 05:05:31;;;;;;;;;;;;;;;26.26;24.55;101782.47;5075998;28;1097;-12
2023/01/04 05:07:57;;;;;;;;;;;;;;;25.60;25.30;101777.97;5075767;28;1121;-12
2023/01/04 05:10:22;;;;;;;;;;;;;;;25.61;25.31;101782.34;5075637;28;1006;-12
2023/01/04 05:12:59;;;;;;;;;;;;;;;25.22;25.78;101779.78;5062352;28;1194;-12
2023/01/04 05:15:28;;;;;;;;;;;;;;;26.61;24.40;101778.13;5062467;28;1063;-12
2023/01/04 05:17:53;;;;;;;;;;;;;;;26.33;24.40;101775.50;5057495;28;1093;-12
2023/01/04 05:20:19;;;;;;;;;;;;;;;26.20;24.49;101781.25;5075398;28;1090;-12
2023/01/04 05:22:44;;;;;;;;;;;;;;;25.97;24.33;101786.22;5062034;28;1953;-12
2023/01/04 05:25:10;;;;;;;;;;;;;;;25.28;25.58;101777.34;5065386;28;1083;-12
2023/01/04 05:27:36;;;;;;;;;;;;;;;25.33;25.73;101785.00;5072478;28;1090;-12
2023/01/04 05:32:45;;;;;;;;;;;;;;;25.95;26.03;101778.28;5061720;28;1986;-12
2023/01/04 05:35:11;;;;;;;;;;;;;;;26.10;25.75;101773.22;5075090;28;1067;-12
2023/01/04 05:37:36;;;;;;;;;;;;;;;26.07;25.85;101776.22;5075730;28;1138;-13
2023/01/04 05:40:01;;;;;;;;;;;;;;;25.83;26.60;101774.06;5066794;28;1147;-12
2023/01/04 05:42:27;;;;;;;;;;;;;;;26.17;26.06;101776.16;5072720;28;1918;-12
2023/01/04 05:44:56;;;;;;;;;;;;;;;26.08;26.33;101785.13;5068664;28;1111;-12
2023/01/04 05:47:21;;;;;;;;;;;;;;;25.67;26.90;101779.09;5078778;28;999;-12
2023/01/04 05:49:47;;;;;;;;;;;;;;;25.24;25.05;101767.03;5069327;28;1150;-12
2023/01/04 05:52:12;;;;;;;;;;;;;;;24.76;26.49;101785.72;5075613;28;1067;-12
2023/01/04 05:54:37;;;;;;;;;;;;;;;24.42;26.23;101798.59;5073758;28;2393;-12
2023/01/04 05:57:03;;;;;;;;;;;;;;;24.24;26.58;101801.09;5076088;28;1131;-12
2023/01/04 05:59:28;;;;;;;;;;;;;;;24.64;27.00;101793.13;5069296;28;1206;-12
2023/01/04 06:01:53;;;;;;;;;;;;;;;25.33;27.37;101787.69;5078549;28;1886;-12
2023/01/04 06:04:19;;;;;;;;;;;;;;;25.74;26.60;101783.91;5079217;28;1154;-12
2023/01/04 06:06:44;;;;;;;;;;;;;;;26.71;25.34;101790.72;5079743;28;1159;-12
2023/01/04 06:09:09;;;;;;;;;;;;;;;26.04;25.74;101798.09;5065950;28;1115;-12
2023/01/04 06:11:35;;;;;;;;;;;;;;;25.86;26.60;101801.56;5078680;28;1062;-12
2023/01/04 06:14:00;;;;;;;;;;;;;;;26.17;26.18;101793.16;5065314;28;1228;-12
2023/01/04 06:16:25;;;;;;;;;;;;;;;26.59;25.84;101804.44;5078550;28;1046;-12
2023/01/04 06:18:51;;;;;;;;;;;;;;;26.19;26.44;101806.53;5079116;28;1198;-12
2023/01/04 06:21:16;;;;;;;;;;;;;;;26.03;26.52;101817.94;5074414;28;1976;-12
2023/01/04 06:23:41;;;;;;;;;;;;;;;26.05;26.84;101821.34;5070043;28;1082;-12
2023/01/04 06:26:06;;;;;;;;;;;;;;;26.80;25.73;101824.88;5073483;28;1031;-12
2023/01/04 06:28:32;;;;;;;;;;;;;;;26.45;26.21;101834.63;5069804;28;956;-12
2023/01/04 06:30:57;;;;;;;;;;;;;;;26.48;26.15;101834.34;5078700;28;1022;-12
2023/01/04 06:33:22;;;;;;;;;;;;;;;27.15;25.67;101830.44;5078393;28;1123;-12
2023/01/04 06:35:54;;;;;;;;;;;;;;;26.82;25.79;101832.81;5074952;28;1086;-12
2023/01/04 06:38:19;;;;;;;;;;;;;;;26.67;26.03;101837.91;5063494;28;1109;-12
2023/01/04 06:40:44;;;;;;;;;;;;;;;25.50;28.00;101839.09;5072046;28;1205;-12
2023/01/04 06:43:10;;;;;;;;;;;;;;;26.83;25.98;101851.56;5060125;28;1906;-12
2023/01/04 06:45:35;;;;;;;;;;;;;;;26.71;26.16;101856.34;5064666;28;1162;-12
2023/01/04 06:48:00;;;;;;;;;;;;;;;26.79;26.42;101850.19;5078385;28;1130;-12
2023/01/04 06:50:25;;;;;;;;;;;;;;;25.14;28.71;101851.34;5077609;28;1075;-12
2023/01/04 06:52:51;;;;;;;;;;;;;;;25.95;27.83;101855.59;5073898;28;1206;-13
2023/01/04 06:55:16;;;;;;;;;;;;;;;26.55;26.87;101862.41;5077783;28;1131;-12
2023/01/04 06:57:41;;;;;;;;;;;;;;;26.62;26.45;101858.13;5078372;28;1122;-12
2023/01/04 07:00:07;;;;;;;;;;;;;;;26.59;27.04;101860.25;5078213;28;1026;-12
2023/01/04 07:02:33;;;;;;;;;;;;;;;26.91;26.01;101869.69;5070520;28;1906;-12
2023/01/04 07:04:58;;;;;;;;;;;;;;;27.15;26.08;101873.63;5073561;28;1579;-12
2023/01/04 07:07:23;;;;;;;;;;;;;;;26.86;26.50;101877.41;5077988;28;1036;-12
2023/01/04 07:09:49;;;;;;;;;;;;;;;26.89;26.55;101864.44;5064532;28;1166;-12
2023/01/04 07:12:14;;;;;;;;;;;;;;;26.95;26.35;101867.53;5078159;28;1074;-12
2023/01/04 07:14:39;;;;;;;;;;;;;;;26.96;26.41;101871.94;5064219;28;1174;-12
2023/01/04 07:17:04;;;;;;;;;;;;;;;27.04;26.25;101874.75;5077704;28;1115;-12
2023/01/04 07:19:30;;;;;;;;;;;;;;;27.03;26.21;101878.44;5059793;28;1036;-12
2023/01/04 07:21:57;;;;;;;;;;;;;;;27.04;26.49;101885.53;5067919;28;1960;-12
2023/01/04 07:24:22;;;;;;;;;;;;;;;27.02;26.51;101891.09;5074525;28;1070;-12
2023/01/04 07:26:48;;;;;;;;;;;;;;;27.01;26.51;101877.69;5077335;28;1054;-12
2023/01/04 07:29:13;;;;;;;;;;;;;;;27.08;26.35;101883.34;5074728;28;1114;-12
2023/01/04 07:31:38;;;;;;;;;;;;;;;26.90;26.65;101881.50;5067307;28;1213;-12
2023/01/04 07:34:04;;;;;;;;;;;;;;;26.92;26.71;101889.44;5074385;28;1055;-12
2023/01/04 07:36:29;;;;;;;;;;;;;;;26.95;26.43;101891.81;5067054;28;1050;-12
2023/01/04 07:38:54;;;;;;;;;;;;;;;26.85;26.91;101881.94;5076616;28;1015;-12
2023/01/04 07:41:19;;;;;;;;;;;;;;;26.92;26.50;101893.00;5085889;28;1913;-12
2023/01/04 07:43:45;;;;;;;;;;;;;;;26.87;26.96;101895.31;5073953;28;1094;-12
2023/01/04 07:46:10;;;;;;;;;;;;;;;26.85;27.02;101892.75;5076759;28;1109;-12
2023/01/04 07:48:35;;;;;;;;;;;;;;;26.88;27.24;101900.53;5077116;28;1006;-12
2023/01/04 07:51:01;;;;;;;;;;;;;;;27.07;27.08;101904.13;5074048;28;1151;-12
2023/01/04 07:53:26;;;;;;;;;;;;;;;26.97;27.19;101906.03;5066039;28;1370;-12
2023/01/04 07:55:57;;;;;;;;;;;;;;;26.82;27.20;101898.47;5076800;28;1139;-12
2023/01/04 07:58:23;;;;;;;;;;;;;;;26.89;27.26;101904.09;5077448;28;1085;-13
2023/01/04 08:00:49;;;;;;;;;;;;;;;27.03;27.09;101908.13;5074722;28;1351;-12
2023/01/04 08:03:14;;;;;;;;;;;;;;;26.94;27.10;101906.34;5067150;28;1961;-12
2023/01/04 08:05:41;;;;;;;;;;;;;;;26.67;27.36;101911.63;5076412;28;1041;-13
2023/01/04 08:08:06;;;;;;;;;;;;;;;26.64;27.40;101911.94;5063849;28;1127;-12
2023/01/04 08:10:31;;;;;;;;;;;;;;;26.52;27.46;101908.59;5076420;28;1109;-12
2023/01/04 08:12:57;;;;;;;;;;;;;;;26.49;27.42;101908.91;5074792;28;1275;-12
2023/01/04 08:15:22;;;;;;;;;;;;;;;26.61;27.87;101909.53;5076474;28;957;-12
2023/01/04 08:17:48;;;;;;;;;;;;;;;26.89;27.13;101904.94;5076344;28;1024;-12
2023/01/04 08:20:13;;;;;;;;;;;;;;;26.82;27.02;101901.16;5071093;28;1306;-12
2023/01/04 08:22:38;;;;;;;;;;;;;;;26.67;27.14;101905.38;5074233;28;1949;-12
2023/01/04 08:25:05;;;;;;;;;;;;;;;26.83;26.86;101907.38;5073492;28;1206;-12
2023/01/04 08:27:30;;;;;;;;;;;;;;;27.00;26.67;101905.72;5075517;28;1305;-12
2023/01/04 08:29:55;;;;;;;;;;;;;;;26.95;26.77;101891.81;5070516;28;1293;-12
2023/01/04 08:32:21;;;;;;;;;;;;;;;26.84;26.83;101915.34;5076113;28;1286;-12
2023/01/04 08:34:46;;;;;;;;;;;;;;;26.85;26.83;101916.19;5075885;28;1378;-12
2023/01/04 08:37:11;;;;;;;;;;;;;;;26.84;27.33;101914.50;5075721;28;1318;-12
2023/01/04 08:39:36;;;;;;;;;;;;;;;26.10;28.02;101916.13;5075350;28;1254;-12
2023/01/04 08:42:02;;;;;;;;;;;;;;;25.70;29.07;101922.63;5075543;28;1926;-12
2023/01/04 08:44:27;;;;;;;;;;;;;;;26.08;28.91;101931.59;5073483;28;1171;-13
2023/01/04 08:46:53;;;;;;;;;;;;;;;26.38;27.92;101926.13;5075891;28;1262;-12
2023/01/04 08:49:18;;;;;;;;;;;;;;;26.69;27.38;101928.53;5075994;28;1074;-12
2023/01/04 08:51:43;;;;;;;;;;;;;;;27.09;26.95;101930.97;5063616;28;1280;-12
2023/01/04 08:54:09;;;;;;;;;;;;;;;26.84;26.99;101938.81;5076162;28;1062;-12
2023/01/04 08:56:34;;;;;;;;;;;;;;;26.95;27.21;101943.97;5064043;28;1315;-12
2023/01/04 09:00:13;;;;;;;;;;;;;;;27.51;26.44;101934.88;5088475;27;1332;-51
2023/01/04 09:02:38;;;;;;;;;;;;;;;26.92;26.85;101929.94;5076239;28;1139;-55
2023/01/04 09:05:04;;;;;;;;;;;;;;;26.85;27.34;101927.00;5083168;28;1183;-54
2023/01/04 09:07:29;;;;;;;;;;;;;;;26.77;27.04;101930.47;5082468;28;1163;-55
2023/01/04 09:09:56;;;;;;;;;;;;;;;26.89;27.12;101928.41;5063478;28;1274;-51
2023/01/04 09:12:21;;;;;;;;;;;;;;;27.09;26.53;101929.13;5084031;28;1180;-53
2023/01/04 09:14:46;;;;;;;;;;;;;;;27.10;26.43;101927.28;5081895;28;1211;-46
2023/01/04 09:17:12;;;;;;;;;;;;;;;26.99;26.29;101922.94;5080101;28;1163;-51
2023/01/04 09:19:37;;;;;;;;;;;;;;;26.95;27.19;101924.22;5082980;28;1910;-49
2023/01/04 09:22:02;;;;;;;;;;;;;;;27.13;26.72;101924.25;5079130;28;1215;-49
2023/01/04 09:24:28;;;;;;;;;;;;;;;26.94;26.57;101922.53;5084254;28;1203;-15
2023/01/04 09:26:53;;;;;;;;;;;;;;;26.23;27.93;101917.63;5081282;28;1294;-15
2023/01/04 09:29:18;;;;;;;;;;;;;;;26.20;28.07;101917.94;5082348;28;1215;-15
2023/01/04 09:31:44;;;;;;;;;;;;;;;26.45;27.31;101905.66;5081581;28;1195;-15
2023/01/04 09:34:10;;;;;;;;;;;;;;;26.43;27.57;101902.25;5083861;28;1227;-15
2023/01/04 09:36:35;;;;;;;;;;;;;;;26.76;27.05;101908.00;5082456;28;1180;-15
2023/01/04 09:39:00;;;;;;;;;;;;;;;25.78;28.29;101904.75;5081356;28;1909;-15
2023/01/04 09:41:29;;;;;;;;;;;;;;;26.32;27.37;101908.66;5086906;28;1275;-14
2023/01/04 09:44:15;;;;;;;;;;;;;;;26.30;27.68;101902.56;5082924;28;1163;-14
2023/01/04 09:46:40;;;;;;;;;;;;;;;26.33;27.68;101910.38;5071717;28;1580;-15
2023/01/04 09:49:08;;;;;;;;;;;;;;;26.52;27.66;101909.44;5072037;28;1043;-15
2023/01/04 09:51:34;;;;;;;;;;;;;;;26.56;27.25;101909.16;5072333;28;1109;-15
2023/01/04 09:54:01;;;;;;;;;;;;;;;26.60;27.26;101919.47;5063002;28;1132;-15
2023/01/04 09:56:28;;;;;;;;;;;;;;;26.80;27.11;101911.25;5080340;28;2234;-14
2023/01/04 09:58:53;;;;;;;;;;;;;;;26.01;28.46;101914.31;5073543;28;1958;-14
2023/01/04 10:01:21;;;;;;;;;;;;;;;24.60;29.49;101908.22;5058246;28;1011;-15
2023/01/04 10:03:50;;;;;;;;;;;;;;;25.13;27.41;101910.72;5072019;28;1021;-14
2023/01/04 10:06:16;;;;;;;;;;;;;;;25.22;27.30;101909.03;5067479;28;1674;-14
2023/01/04 10:08:41;;;;;;;;;;;;;;;24.81;28.64;101901.88;5081125;28;926;-14
2023/01/04 10:11:12;;;;;;;;;;;;;;;24.83;27.62;101898.06;5076864;28;2059;-15
2023/01/04 10:13:47;;;;;;;;;;;;;;;24.61;28.25;101901.84;5068466;28;1168;-14
2023/01/04 10:16:18;;;;;;;;;;;;;;;24.30;26.84;101886.63;5077708;28;1110;-15
2023/01/04 10:18:48;;;;;;;;;;;;;;;23.81;27.41;101897.94;5066620;28;1905;-15
2023/01/04 10:21:16;;;;;;;;;;;;;;;23.43;27.73;101894.03;5054495;28;1044;-15
2023/01/04 10:23:44;;;;;;;;;;;;;;;23.25;27.44;101891.88;5051854;28;1155;-15
2023/01/04 10:26:11;;;;;;;;;;;;;;;22.98;27.81;101901.25;5064688;28;1127;-15
2023/01/04 10:28:46;;;;;;;;;;;;;;;24.35;25.88;101905.03;5077673;28;1008;-14
2023/01/04 10:31:13;;;;;;;;;;;;;;;25.04;24.55;101898.97;5057917;28;1209;-14
2023/01/04 10:33:45;;;;;;;;;;;;;;;24.19;25.58;101903.69;5057904;28;1103;-14
2023/01/04 10:36:16;;;;;;;;;;;;;;;24.11;25.72;101894.59;5065445;28;1132;-14
2023/01/04 10:38:41;;;;;;;;;;;;;;;24.22;25.58;101886.44;5059368;28;1894;-14
2023/01/04 10:41:08;;;;;;;;;;;;;;;24.60;26.22;101902.84;5070003;28;1828;-14
2023/01/04 10:43:34;;;;;;;;;;;;;;;25.13;26.32;101890.03;5075879;28;1293;-15
2023/01/04 10:46:01;;;;;;;;;;;;;;;25.80;25.43;101904.59;5066112;28;1020;-14
2023/01/04 10:48:26;;;;;;;;;;;;;;;25.63;25.59;101911.56;5046930;28;1135;-14
2023/01/04 10:50:56;;;;;;;;;;;;;;;26.59;24.72;101908.84;5077807;28;1064;-14
2023/01/04 10:53:26;;;;;;;;;;;;;;;26.39;25.10;101907.09;5063613;28;916;-15
2023/01/04 10:55:52;;;;;;;;;;;;;;;26.44;25.29;101898.56;5059242;28;1134;-14
2023/01/04 10:58:25;;;;;;;;;;;;;;;26.14;25.59;101901.34;5074401;28;1906;-14
2023/01/04 11:00:52;;;;;;;;;;;;;;;26.71;24.84;101902.22;5057955;28;1060;-14
2023/01/04 11:03:23;;;;;;;;;;;;;;;26.58;25.33;101901.72;5060726;28;969;-15
2023/01/04 11:06:04;;;;;;;;;;;;;;;26.89;25.27;101902.22;5065832;28;941;-14
2023/01/04 11:08:30;;;;;;;;;;;;;;;26.97;24.89;101897.91;5057929;28;1403;-14
2023/01/04 11:11:06;;;;;;;;;;;;;;;26.62;25.56;101898.59;5049648;28;2046;-15
2023/01/04 11:13:32;;;;;;;;;;;;;;;26.27;26.43;101894.78;5066428;28;1362;-14
2023/01/04 11:15:58;;;;;;;;;;;;;;;25.53;27.21;101900.78;5053448;28;1518;-14
2023/01/04 11:18:23;;;;;;;;;;;;;;;25.39;27.65;101897.53;5055943;28;1894;-14
2023/01/04 11:20:48;;;;;;;;;;;;;;;26.02;26.78;101900.72;5071010;28;1462;-14
2023/01/04 11:23:17;;;;;;;;;;;;;;;26.28;26.24;101897.31;5061815;28;1262;-15
2023/01/04 11:25:50;;;;;;;;;;;;;;;26.33;26.76;101902.28;5066290;28;1206;-15
2023/01/04 11:28:20;;;;;;;;;;;;;;;25.60;27.22;101899.22;5053341;28;1065;-15
2023/01/04 11:30:45;;;;;;;;;;;;;;;26.23;26.08;101893.34;5051265;28;1149;-14
2023/01/04 11:33:14;;;;;;;;;;;;;;;26.34;26.42;101889.66;5067142;28;1164;-18
2023/01/04 11:35:41;;;;;;;;;;;;;;;26.32;26.22;101899.72;5049650;28;1152;-14
2023/01/04 11:38:10;;;;;;;;;;;;;;;26.14;26.70;101895.94;5067399;28;1898;-14
2023/01/04 11:40:35;;;;;;;;;;;;;;;26.03;26.77;101897.00;5050524;28;2027;-14
2023/01/04 11:43:19;;;;;;;;;;;;;;;25.93;26.58;101898.88;5038549;28;1146;-15
2023/01/04 11:45:54;;;;;;;;;;;;;;;25.79;26.92;101887.56;5062089;28;1057;-14
2023/01/04 11:48:29;;;;;;;;;;;;;;;25.74;27.29;101891.72;5065124;28;1330;-14
2023/01/04 11:50:55;;;;;;;;;;;;;;;25.59;27.67;101899.38;5065416;28;1223;-14
2023/01/04 11:53:46;;;;;;;;;;;;;;;26.89;25.80;101896.00;5065347;28;851;-14
2023/01/04 11:56:21;;;;;;;;;;;;;;;27.12;25.17;101899.13;5072705;28;1823;-15
2023/01/04 11:59:07;;;;;;;;;;;;;;;27.53;24.82;101896.91;5044764;28;1906;-15
2023/01/04 12:01:33;;;;;;;;;;;;;;;28.23;24.02;101898.66;5055094;28;1209;-14
2023/01/04 12:03:59;;;;;;;;;;;;;;;28.05;23.99;101903.31;5045468;28;1212;-14
2023/01/04 12:06:27;;;;;;;;;;;;;;;26.96;25.44;101899.75;5058667;28;993;-14
2023/01/04 12:08:52;;;;;;;;;;;;;;;27.30;25.21;101908.19;5069284;28;1144;-14
2023/01/04 12:11:19;;;;;;;;;;;;;;;26.75;25.86;101898.22;5058805;28;1896;-14
2023/01/04 12:13:45;;;;;;;;;;;;;;;27.19;25.62;101893.09;5073932;28;1116;-14
2023/01/04 12:16:13;;;;;;;;;;;;;;;27.80;24.88;101895.91;5071386;28;1128;-15
2023/01/04 12:18:39;;;;;;;;;;;;;;;27.86;24.86;101889.88;5063561;28;1986;-15
2023/01/04 12:21:04;;;;;;;;;;;;;;;27.94;24.68;101888.22;5064462;28;1168;-14
2023/01/04 12:23:30;;;;;;;;;;;;;;;27.91;24.52;101891.25;5066057;28;1250;-15
2023/01/04 12:25:55;;;;;;;;;;;;;;;28.12;24.49;101890.84;5068563;28;1203;-14
2023/01/04 12:28:33;;;;;;;;;;;;;;;27.03;25.67;101891.94;5075226;28;1016;-15
2023/01/04 12:31:17;;;;;;;;;;;;;;;27.29;25.75;101893.84;5058679;28;1337;-15
2023/01/04 12:33:42;;;;;;;;;;;;;;;28.16;24.48;101900.31;5061742;28;1167;-15
2023/01/04 12:36:14;;;;;;;;;;;;;;;28.17;24.49;101901.19;5047991;28;1163;-14
2023/01/04 12:38:56;;;;;;;;;;;;;;;28.44;24.12;101897.44;5065916;28;1909;-15
2023/01/04 12:41:22;;;;;;;;;;;;;;;28.32;24.38;101902.25;5065534;28;1897;-14
2023/01/04 12:43:48;;;;;;;;;;;;;;;28.36;23.88;101900.94;5064712;28;1160;-14
2023/01/04 12:49:25;;;;;;;;;;;;;;;28.02;24.76;101899.09;5065844;28;1065;-14
2023/01/04 12:52:09;;;;;;;;;;;;;;;28.58;24.22;101895.94;5066150;28;1274;-14
2023/01/04 12:54:47;;;;;;;;;;;;;;;28.93;23.44;101886.84;5074757;28;920;-15
2023/01/04 12:57:15;;;;;;;;;;;;;;;28.76;23.78;101894.13;5050819;28;1119;-14
2023/01/04 12:59:53;;;;;;;;;;;;;;;29.10;23.43;101895.88;5063350;28;1977;-15
2023/01/04 13:02:19;;;;;;;;;;;;;;;27.83;24.47;101906.41;5046421;28;1182;-14
2023/01/04 13:04:45;;;;;;;;;;;;;;;27.87;24.97;101902.41;5067545;28;1231;-14
2023/01/04 13:07:18;;;;;;;;;;;;;;;28.60;24.13;101904.75;5067200;28;1160;-15
2023/01/04 13:09:46;;;;;;;;;;;;;;;27.60;25.36;101901.50;5043745;28;1087;-15
2023/01/04 13:12:30;;;;;;;;;;;;;;;27.38;25.77;101897.44;5069631;28;2226;-15
2023/01/04 13:15:01;;;;;;;;;;;;;;;28.32;24.76;101883.31;5063712;28;1231;-15
2023/01/04 13:17:26;;;;;;;;;;;;;;;28.66;24.10;101889.69;5037826;28;1041;-14
2023/01/04 13:19:52;;;;;;;;;;;;;;;28.84;23.99;101886.00;5051024;28;1934;-14
2023/01/04 13:22:22;;;;;;;;;;;;;;;27.86;25.04;101889.88;5060159;28;1187;-14
2023/01/04 13:24:48;;;;;;;;;;;;;;;26.83;26.49;101894.75;5057209;28;1060;-14
2023/01/04 13:27:14;;;;;;;;;;;;;;;26.92;26.20;101895.69;5055727;28;1499;-14
2023/01/04 13:29:39;;;;;;;;;;;;;;;27.22;25.85;101890.94;5061833;28;1371;-14
2023/01/04 13:32:20;;;;;;;;;;;;;;;27.00;26.30;101889.50;5069240;28;1187;-14
2023/01/04 13:34:48;;;;;;;;;;;;;;;27.09;26.58;101890.47;5037831;28;1044;-14
2023/01/04 13:37:18;;;;;;;;;;;;;;;27.26;25.96;101892.31;5063154;28;1191;-14